Time;durP1;ratioP1;P1;durP2;ratioP2;P2;SDS_P1;SDS_P2;PMS_P1;PMS_P2;Temp;Humidity;BMP_temperature;BMP_pressure;BME280_temperature;BME280_humidity;BME280_pressure;Samples;Min_cycle;Max_cycle;Signal;HPM_P1;HPM_P2
2021/04/15 00:01:12;;;;;;;1.93;0.80;;;;;;;-1.89;88.09;102135.94;4920543;29;20047;-83
2021/04/15 00:03:39;;;;;;;1.80;0.77;;;;;;;-1.93;88.33;102144.34;4967953;28;20047;-82
2021/04/15 00:06:27;;;;;;;1.47;1.10;;;;;;;-1.95;87.35;102139.09;4944249;28;20043;-82
2021/04/15 00:08:54;;;;;;;1.80;0.93;;;;;;;-1.86;87.76;102130.94;4934429;28;20051;-83
2021/04/15 00:11:22;;;;;;;1.80;1.00;;;;;;;-1.86;88.57;102137.00;4944998;28;20046;-83
2021/04/15 00:13:52;;;;;;;1.43;0.90;;;;;;;-1.87;87.81;102134.31;4941475;29;20062;-82
2021/04/15 00:16:18;;;;;;;2.67;1.20;;;;;;;-1.80;87.43;102124.38;4937476;29;20073;-80
2021/04/15 00:18:45;;;;;;;2.17;1.00;;;;;;;-1.87;88.42;102122.28;4924709;28;20125;-85
2021/04/15 00:21:12;;;;;;;4.27;1.77;;;;;;;-1.84;88.00;102118.97;4954148;28;20047;-83
2021/04/15 00:23:38;;;;;;;2.83;1.30;;;;;;;-1.85;88.84;102115.50;4949791;28;20043;-81
2021/04/15 00:26:07;;;;;;;1.27;0.90;;;;;;;-1.90;88.43;102122.13;4938992;29;20035;-82
2021/04/15 00:28:33;;;;;;;2.47;0.90;;;;;;;-1.87;88.04;102119.69;4950481;28;20050;-81
2021/04/15 00:31:00;;;;;;;1.00;0.90;;;;;;;-1.90;88.71;102127.28;4954755;29;20043;-81
2021/04/15 00:33:26;;;;;;;1.87;1.10;;;;;;;-1.89;88.65;102121.31;4947890;28;20051;-84
2021/04/15 00:35:53;;;;;;;2.60;1.27;;;;;;;-1.82;88.20;102117.34;4937909;28;20110;-80
2021/04/15 00:38:22;;;;;;;1.10;1.00;;;;;;;-1.82;88.44;102113.06;4924321;29;20047;-85
2021/04/15 00:40:50;;;;;;;1.73;0.90;;;;;;;-1.82;89.25;102112.16;4927785;29;20068;-84
2021/04/15 00:43:18;;;;;;;1.33;1.00;;;;;;;-1.91;89.19;102112.56;4922241;29;20114;-82
2021/04/15 00:45:46;;;;;;;2.33;1.07;;;;;;;-1.94;88.79;102114.09;4954674;29;20045;-83
2021/04/15 00:48:41;;;;;;;1.97;0.87;;;;;;;-1.93;89.54;102116.78;4935010;29;20445;-83
2021/04/15 00:51:14;;;;;;;2.27;2.07;;;;;;;-1.82;88.78;102106.97;4954732;29;20098;-83
2021/04/15 00:53:53;;;;;;;3.70;1.20;;;;;;;-1.90;89.51;102116.03;4927156;29;20051;-80
2021/04/15 00:56:20;;;;;;;3.97;1.30;;;;;;;-1.91;89.66;102107.38;4944308;29;20043;-85
2021/04/15 00:58:46;;;;;;;2.10;1.07;;;;;;;-1.82;89.29;102104.38;4971958;28;20578;-84
2021/04/15 01:01:12;;;;;;;1.27;1.07;;;;;;;-1.79;89.05;102110.63;5023484;23;20046;-82
2021/04/15 01:03:38;;;;;;;1.77;1.20;;;;;;;-1.72;88.91;102106.66;4937862;28;20043;-82
2021/04/15 01:06:07;;;;;;;2.50;1.03;;;;;;;-1.73;89.14;102105.75;4982526;28;20043;-81
2021/04/15 01:08:33;;;;;;;1.17;0.90;;;;;;;-1.78;89.11;102106.31;4970141;28;20050;-81
2021/04/15 01:11:21;;;;;;;2.40;1.30;;;;;;;-1.73;88.97;102103.16;4947849;28;20094;-82
2021/04/15 01:14:06;;;;;;;1.23;1.00;;;;;;;-1.72;89.19;102102.34;4975053;28;20500;-82
2021/04/15 01:16:49;;;;;;;1.43;0.90;;;;;;;-1.73;89.88;102110.06;4985526;28;20078;-82
2021/04/15 01:19:40;;;;;;;1.87;1.00;;;;;;;-1.76;90.38;102104.72;4953338;28;20089;-81
2021/04/15 01:22:18;;;;;;;2.60;1.20;;;;;;;-1.79;89.85;102104.53;4974683;28;20404;-82
2021/04/15 01:24:47;;;;;;;1.67;1.10;;;;;;;-1.97;90.62;102094.09;4989853;28;20137;-82
2021/04/15 01:27:38;;;;;;;1.67;1.00;;;;;;;-1.81;89.49;102111.34;4976071;28;20092;-81
2021/04/15 01:30:10;;;;;;;2.03;1.20;;;;;;;-1.88;90.56;102101.47;4988704;28;20065;-81
2021/04/15 01:32:49;;;;;;;1.63;1.00;;;;;;;-1.90;89.65;102100.50;4972803;28;20133;-82
2021/04/15 01:35:24;;;;;;;2.13;0.97;;;;;;;-1.79;91.03;102100.25;4968346;28;20042;-82
2021/04/15 01:37:51;;;;;;;3.10;1.07;;;;;;;-1.87;90.02;102092.88;4955346;28;21003;-82
2021/04/15 01:40:23;;;;;;;2.03;1.00;;;;;;;-1.96;90.30;102097.59;4955486;28;20105;-82
2021/04/15 01:43:13;;;;;;;4.07;1.73;;;;;;;-2.00;89.55;102093.94;4968256;28;20053;-81
2021/04/15 01:45:42;;;;;;;2.40;1.10;;;;;;;-1.99;89.46;102101.81;4964336;28;20041;-81
2021/04/15 01:48:14;;;;;;;2.23;1.10;;;;;;;-2.04;90.60;102092.88;4988979;28;20039;-81
2021/04/15 01:50:44;;;;;;;2.00;1.10;;;;;;;-2.08;90.21;102100.41;4972797;28;20038;-81
2021/04/15 01:53:25;;;;;;;2.50;1.33;;;;;;;-2.16;90.93;102106.88;4972805;28;20117;-82
2021/04/15 01:56:20;;;;;;;2.43;1.30;;;;;;;-2.06;89.70;102098.78;4973253;28;20065;-82
2021/04/15 01:58:51;;;;;;;2.83;1.20;;;;;;;-2.07;90.65;102097.03;4963140;28;20042;-81
2021/04/15 02:01:20;;;;;;;2.73;1.53;;;;;;;-2.14;90.91;102100.09;4963257;28;20077;-81
2021/04/15 02:03:48;;;;;;;2.27;1.30;;;;;;;-2.17;90.79;102095.63;4969962;28;20042;-81
2021/04/15 02:06:19;;;;;;;1.40;1.10;;;;;;;-2.22;90.47;102093.59;4952974;28;20035;-82
2021/04/15 02:08:49;;;;;;;2.53;1.40;;;;;;;-2.13;90.93;102088.91;4969238;28;20591;-82
2021/04/15 02:11:40;;;;;;;1.83;1.33;;;;;;;-2.10;90.32;102100.34;4950278;28;20317;-82
2021/04/15 02:14:09;;;;;;;1.80;1.23;;;;;;;-2.23;91.40;102097.00;4952403;28;20042;-82
2021/04/15 02:16:37;;;;;;;2.60;1.40;;;;;;;-2.19;91.20;102102.41;4952997;28;20078;-81
2021/04/15 02:19:06;;;;;;;3.77;1.43;;;;;;;-2.25;91.81;102098.63;4954948;28;20286;-82
2021/04/15 02:21:43;;;;;;;3.60;1.73;;;;;;;-2.34;91.88;102093.84;4973474;28;20050;-82
2021/04/15 02:24:55;;;;;;;2.70;1.40;;;;;;;-2.29;92.09;102101.03;4975243;28;20047;-82
2021/04/15 02:27:24;;;;;;;2.03;1.30;;;;;;;-2.36;92.49;102098.91;4968816;28;20109;-81
2021/04/15 02:29:56;;;;;;;3.27;1.80;;;;;;;-2.35;92.34;102094.66;4973833;28;20042;-82
2021/04/15 02:32:29;;;;;;;1.97;1.33;;;;;;;-2.37;92.34;102086.78;4974367;28;20054;-82
2021/04/15 02:35:09;;;;;;;4.30;1.57;;;;;;;-2.37;92.12;102091.94;5006676;28;20049;-82
2021/04/15 02:37:45;;;;;;;4.73;2.60;;;;;;;-2.37;92.12;102094.53;4990591;28;20097;-83
2021/04/15 02:40:15;;;;;;;3.57;1.87;;;;;;;-2.37;92.21;102085.88;4998794;28;20041;-82
2021/04/15 02:42:42;;;;;;;3.17;2.10;;;;;;;-2.39;92.22;102082.34;4973279;28;20050;-83
2021/04/15 02:45:32;;;;;;;4.50;1.53;;;;;;;-2.46;92.72;102094.03;4955955;28;20053;-83
2021/04/15 02:48:26;;;;;;;1.97;1.47;;;;;;;-2.43;92.35;102091.63;4973170;28;20080;-82
2021/04/15 02:50:59;;;;;;;2.77;1.60;;;;;;;-2.45;92.94;102087.16;4978815;28;20062;-82
2021/04/15 02:53:28;;;;;;;3.83;1.60;;;;;;;-2.41;92.64;102090.03;4944631;28;20053;-83
2021/04/15 03:03:10;;;;;;;3.80;1.63;;;;;;;-2.58;93.34;102083.91;5001769;28;20510;-84
2021/04/15 03:05:48;;;;;;;4.30;1.80;;;;;;;-2.46;93.61;102094.03;4998055;28;20050;-82
2021/04/15 03:08:19;;;;;;;2.63;1.57;;;;;;;-2.42;93.21;102096.00;5007587;28;20138;-82
2021/04/15 03:10:59;;;;;;;3.23;1.80;;;;;;;-2.47;93.67;102092.25;4981446;28;20050;-85
2021/04/15 03:13:33;;;;;;;5.20;2.37;;;;;;;-2.60;94.53;102090.72;5014406;28;20049;-83
2021/04/15 03:16:04;;;;;;;4.33;2.00;;;;;;;-2.56;94.55;102092.66;5012214;28;20042;-81
2021/04/15 03:18:42;;;;;;;3.53;1.97;;;;;;;-2.56;94.03;102086.59;5002278;28;20407;-84
2021/04/15 03:21:18;;;;;;;3.33;1.70;;;;;;;-2.56;94.24;102089.16;5002227;28;20049;-81
2021/04/15 03:23:56;;;;;;;3.43;1.47;;;;;;;-2.57;94.41;102084.81;4995710;28;20041;-79
2021/04/15 03:26:46;;;;;;;3.30;1.63;;;;;;;-2.62;94.79;102092.28;5023153;28;20069;-82
2021/04/15 03:29:21;;;;;;;3.03;1.80;;;;;;;-2.60;94.70;102085.53;4994529;28;20422;-80
2021/04/15 03:31:55;;;;;;;4.67;2.20;;;;;;;-2.56;95.15;102087.47;5009914;28;20060;-78
2021/04/15 03:34:56;;;;;;;;;;;;;;;-2.64;95.66;102093.91;4997090;28;20049;-80
2021/04/15 03:37:29;;;;;;;4.20;1.90;;;;;;;-2.62;95.38;102088.81;4989862;28;19948;-81
2021/04/15 03:39:56;;;;;;;3.50;1.90;;;;;;;-2.61;95.86;102078.59;4995838;28;20068;-81
2021/04/15 03:42:31;;;;;;;3.77;2.10;;;;;;;-2.64;96.35;102090.44;4996510;28;20053;-80
2021/04/15 03:45:03;;;;;;;3.80;1.90;;;;;;;-2.66;95.53;102087.78;5005228;28;20046;-79
2021/04/15 03:47:32;;;;;;;3.63;2.40;;;;;;;-2.63;95.42;102090.53;4995174;28;20050;-81
2021/04/15 03:53:05;;;;;;;4.83;2.20;;;;;;;-2.60;95.95;102095.00;4943323;29;20176;-82
2021/04/15 03:55:40;;;;;;;2.77;2.17;;;;;;;-2.51;96.45;102104.97;4944256;28;20046;-81
2021/04/15 03:58:15;;;;;;;6.43;2.20;;;;;;;-2.53;95.56;102094.50;4924619;29;20058;-83
2021/04/15 04:00:46;;;;;;;6.30;2.13;;;;;;;-2.51;96.16;102097.19;4912025;29;20404;-83
2021/04/15 04:03:18;;;;;;;4.53;2.17;;;;;;;-2.55;96.12;102097.00;4913122;29;20092;-83
2021/04/15 04:05:48;;;;;;;7.67;2.30;;;;;;;-2.44;96.79;102097.59;4928390;28;20044;-82
2021/04/15 04:08:21;;;;;;;4.37;2.23;;;;;;;-2.39;96.58;102098.75;4912664;29;20044;-83
2021/04/15 04:10:48;;;;;;;4.57;2.17;;;;;;;-2.36;96.72;102104.09;4937217;29;20070;-81
2021/04/15 04:13:27;;;;;;;3.97;2.00;;;;;;;-2.41;96.18;102094.31;4915837;29;20075;-83
2021/04/15 04:16:04;;;;;;;3.70;2.00;;;;;;;-2.41;96.26;102095.19;4934487;29;20040;-83
2021/04/15 04:18:46;;;;;;;3.30;1.77;;;;;;;-2.36;97.28;102092.84;4931820;29;20047;-83
2021/04/15 04:21:20;;;;;;;5.10;2.70;;;;;;;-2.45;97.15;102097.50;4931116;29;20050;-83
2021/04/15 04:23:52;;;;;;;4.90;2.10;;;;;;;-2.42;97.14;102101.19;4931888;29;20054;-82
2021/04/15 04:26:47;;;;;;;2.57;1.87;;;;;;;-2.16;97.99;102104.28;4913381;29;20036;-83
2021/04/15 04:29:17;;;;;;;;;;;;;;;-2.25;97.52;102115.03;4937836;29;20838;-80
2021/04/15 04:31:44;;;;;;;3.80;1.87;;;;;;;-2.18;97.05;102109.41;4908216;29;19923;-84
2021/04/15 04:34:16;;;;;;;5.83;2.23;;;;;;;-2.10;97.63;102110.69;4909439;29;20147;-83
2021/04/15 04:36:42;;;;;;;4.17;1.97;;;;;;;-2.17;97.58;102108.59;4915531;29;20044;-80
2021/04/15 04:39:13;;;;;;;3.67;2.03;;;;;;;-2.20;97.85;102108.41;4933242;28;20047;-84
2021/04/15 04:41:58;;;;;;;5.00;2.10;;;;;;;-2.15;97.92;102109.56;4930935;29;20040;-83
2021/04/15 04:44:43;;;;;;;8.97;2.83;;;;;;;-2.17;98.37;102112.88;4944247;29;20052;-83
2021/04/15 04:47:36;;;;;;;3.10;2.10;;;;;;;-2.11;97.87;102121.84;4946623;29;20044;-83
2021/04/15 04:50:11;;;;;;;5.60;2.00;;;;;;;-2.12;98.22;102114.00;4915793;29;20048;-81
2021/04/15 04:52:37;;;;;;;5.30;2.43;;;;;;;-1.92;97.97;102109.91;4930768;29;20046;-80
2021/04/15 04:55:21;;;;;;;5.97;2.03;;;;;;;-1.96;98.26;102116.59;4915375;29;20538;-83
2021/04/15 04:57:47;;;;;;;3.57;2.20;;;;;;;-1.79;98.68;102110.63;4924317;29;20051;-80
2021/04/15 05:00:17;;;;;;;4.07;2.23;;;;;;;-1.75;98.34;102117.75;4928397;29;20481;-80
2021/04/15 05:02:43;;;;;;;4.30;2.03;;;;;;;-1.69;98.19;102117.16;4918043;29;20051;-80
2021/04/15 05:05:19;;;;;;;5.20;2.10;;;;;;;-1.76;97.96;102117.69;4919993;29;20535;-81
2021/04/15 05:07:46;;;;;;;5.93;2.20;;;;;;;-1.70;98.87;102113.69;4920320;29;20044;-81
2021/04/15 05:10:18;;;;;;;6.17;2.37;;;;;;;-1.61;98.88;102121.03;4915169;29;20508;-81
2021/04/15 05:12:45;;;;;;;5.90;3.00;;;;;;;-1.50;98.98;102121.63;4903028;29;20540;-81
2021/04/15 05:15:12;;;;;;;4.40;2.50;;;;;;;-1.50;99.70;102121.63;4918522;29;20054;-80
2021/04/15 05:17:38;;;;;;;5.57;3.00;;;;;;;-1.36;99.95;102130.97;4932650;29;22030;-82
2021/04/15 05:20:11;;;;;;;5.93;2.97;;;;;;;-1.31;99.61;102132.13;4934572;29;20075;-81
2021/04/15 05:22:52;;;;;;;7.73;3.43;;;;;;;-1.18;99.62;102131.03;4950464;29;20052;-80
2021/04/15 05:25:40;;;;;;;6.30;2.93;;;;;;;-1.11;99.19;102138.31;4934947;29;20054;-82
2021/04/15 05:28:09;;;;;;;7.00;2.80;;;;;;;-1.09;98.79;102143.56;4935783;29;20048;-82
2021/04/15 05:30:40;;;;;;;5.53;3.20;;;;;;;-1.03;99.74;102128.31;4930921;29;20080;-79
2021/04/15 05:33:10;;;;;;;7.60;3.23;;;;;;;-0.95;100.00;102133.06;4920007;29;20036;-81
2021/04/15 05:35:45;;;;;;;6.13;2.88;;;;;;;-0.77;100.00;102132.19;4943778;28;20063;-81
2021/04/15 05:38:12;;;;;;;6.40;3.10;;;;;;;-0.61;100.00;102138.19;4930106;29;20047;-81
2021/04/15 05:40:38;;;;;;;7.27;2.93;;;;;;;-0.55;99.83;102132.44;4932324;29;20530;-78
2021/04/15 05:43:40;;;;;;;10.20;2.87;;;;;;;-0.55;99.61;102131.53;4907441;29;20044;-82
2021/04/15 05:46:18;;;;;;;6.73;2.80;;;;;;;-0.43;100.00;102135.59;4944955;28;20054;-80
2021/04/15 05:48:45;;;;;;;7.00;3.10;;;;;;;-0.22;99.25;102130.53;4949992;29;20083;-80
2021/04/15 05:51:18;;;;;;;5.90;3.00;;;;;;;-0.19;98.37;102127.19;4916627;29;20044;-82
2021/04/15 05:53:49;;;;;;;7.77;3.27;;;;;;;-0.02;98.42;102134.94;4934103;29;20255;-82
2021/04/15 05:56:22;;;;;;;5.73;3.03;;;;;;;0.03;98.59;102142.06;4947068;29;20046;-84
2021/04/15 05:59:10;;;;;;;6.70;3.53;;;;;;;0.10;98.36;102138.94;4904377;29;20050;-79
2021/04/15 06:01:41;;;;;;;4.50;3.27;;;;;;;0.10;98.08;102139.81;4932626;29;20155;-80
2021/04/15 06:04:20;;;;;;;7.23;3.80;;;;;;;0.42;98.45;102138.69;4916067;29;20044;-83
2021/04/15 06:06:47;;;;;;;7.53;3.20;;;;;;;0.36;98.90;102133.19;4937755;28;20039;-83
2021/04/15 06:09:13;;;;;;;8.57;3.87;;;;;;;0.48;98.77;102136.31;4930212;29;20048;-80
2021/04/15 06:11:55;;;;;;;5.80;3.33;;;;;;;0.60;97.96;102133.41;4915888;29;20394;-81
2021/04/15 06:14:36;;;;;;;6.37;3.10;;;;;;;0.88;96.06;102142.38;4931742;29;20043;-83
2021/04/15 06:17:24;;;;;;;5.60;3.53;;;;;;;1.01;95.70;102129.03;4945521;29;20409;-83
2021/04/15 06:20:16;;;;;;;6.37;3.67;;;;;;;1.12;93.99;102139.09;4933658;29;20043;-83
2021/04/15 06:22:45;;;;;;;6.33;3.93;;;;;;;1.37;94.54;102124.47;4946223;28;20054;-83
2021/04/15 06:25:14;;;;;;;7.17;3.37;;;;;;;1.59;94.10;102132.28;4946580;28;20071;-82
2021/04/15 06:27:42;;;;;;;5.53;3.10;;;;;;;1.68;93.21;102127.47;4917700;29;20044;-81
2021/04/15 06:30:16;;;;;;;7.33;3.73;;;;;;;1.92;91.16;102134.44;4939967;29;20589;-82
2021/04/15 06:32:54;;;;;;;5.55;3.13;;;;;;;2.19;90.79;102125.06;4918232;29;20059;-82
2021/04/15 06:35:24;;;;;;;5.47;3.23;;;;;;;2.41;88.15;102126.72;4933450;29;20040;-81
2021/04/15 06:37:54;;;;;;;4.93;2.53;;;;;;;2.53;87.85;102123.69;4946087;28;20040;-81
2021/04/15 06:40:33;;;;;;;7.20;2.87;;;;;;;2.69;83.73;102127.69;4928854;29;20051;-82
2021/04/15 06:43:44;;;;;;;6.13;2.83;;;;;;;3.10;82.18;102116.94;4923443;29;20093;-82
2021/04/15 06:46:42;;;;;;;4.07;2.33;;;;;;;3.02;81.98;102118.41;4933110;29;20493;-80
2021/04/15 06:49:24;;;;;;;3.53;2.37;;;;;;;3.34;81.27;102124.72;4941656;29;20043;-80
2021/04/15 06:52:00;;;;;;;4.30;2.43;;;;;;;3.74;79.65;102119.84;4948585;29;20055;-78
2021/04/15 06:54:40;;;;;;;3.40;2.17;;;;;;;3.61;79.17;102118.56;4907112;29;20051;-80
2021/04/15 06:57:48;;;;;;;4.70;2.67;;;;;;;3.74;76.04;102118.13;4944285;29;20091;-79
2021/04/15 07:00:20;;;;;;;3.13;1.57;;;;;;;3.88;77.54;102119.44;4943921;29;20654;-79
2021/04/15 07:03:10;;;;;;;4.03;1.70;;;;;;;4.07;74.98;102109.53;4925464;29;20589;-79
2021/04/15 07:05:59;;;;;;;2.03;1.40;;;;;;;4.36;70.67;102111.22;4924917;29;20050;-80
2021/04/15 07:08:46;;;;;;;2.30;1.00;;;;;;;4.51;69.06;102119.50;4945986;29;20059;-78
2021/04/15 07:11:30;;;;;;;1.60;1.10;;;;;;;4.61;70.96;102114.53;4947385;29;20059;-81
2021/04/15 07:14:28;;;;;;;1.45;0.90;;;;;;;4.79;68.00;102110.69;4934377;29;20044;-79
2021/04/15 07:17:16;;;;;;;2.83;0.90;;;;;;;5.07;67.60;102107.03;4931213;29;20047;-79
2021/04/15 07:19:51;;;;;;;2.53;0.90;;;;;;;5.18;63.26;102099.44;4941989;28;20078;-80
2021/04/15 07:22:38;;;;;;;1.53;1.00;;;;;;;5.17;62.00;102104.66;4938122;29;20044;-79
2021/04/15 07:25:42;;;;;;;0.87;0.70;;;;;;;5.36;61.79;102109.47;4931504;29;20055;-80
2021/04/15 07:28:29;;;;;;;1.50;0.80;;;;;;;5.24;60.31;102106.56;4915426;29;20052;-80
2021/04/15 07:31:24;;;;;;;1.33;1.13;;;;;;;5.30;60.65;102110.25;4933797;29;20442;-80
2021/04/15 07:34:06;;;;;;;3.30;0.90;;;;;;;5.46;59.03;102114.06;4930333;29;20071;-80
2021/04/15 07:36:47;;;;;;;2.00;0.80;;;;;;;5.55;58.79;102108.16;4929734;29;20036;-80
2021/04/15 07:39:32;;;;;;;1.33;0.70;;;;;;;5.53;55.74;102123.88;4906566;29;20083;-77
2021/04/15 07:42:08;;;;;;;0.83;0.70;;;;;;;5.70;57.11;102111.16;4925999;29;20123;-81
2021/04/15 07:44:58;;;;;;;2.50;1.43;;;;;;;5.88;56.45;102114.16;4910983;29;20048;-80
2021/04/15 07:47:43;;;;;;;1.93;1.10;;;;;;;6.00;56.32;102117.97;4944760;29;20051;-79
2021/04/15 07:50:16;;;;;;;1.42;0.63;;;;;;;5.92;53.12;102117.81;4931308;29;20052;-79
2021/04/15 07:53:12;;;;;;;0.70;0.70;;;;;;;6.12;56.97;102112.97;4929932;29;20046;-79
2021/04/15 07:55:57;;;;;;;0.90;0.60;;;;;;;6.46;53.05;102117.16;4925745;29;20048;-81
2021/04/15 07:58:44;;;;;;;1.48;0.85;;;;;;;6.19;51.61;102113.13;4946865;29;20047;-80
2021/04/15 08:01:13;;;;;;;1.00;0.80;;;;;;;6.09;51.37;102126.91;4943716;28;20371;-80
2021/04/15 08:03:46;;;;;;;1.10;0.70;;;;;;;6.35;53.70;102111.72;4935207;29;20708;-80
2021/04/15 08:06:45;;;;;;;2.07;0.80;;;;;;;6.42;49.34;102118.84;4933421;29;20162;-78
2021/04/15 08:09:30;;;;;;;0.93;0.47;;;;;;;6.15;49.41;102119.19;4931341;29;20050;-80
2021/04/15 08:12:17;;;;;;;2.37;0.80;;;;;;;6.28;51.35;102127.28;4926992;29;20076;-79
2021/04/15 08:14:50;;;;;;;1.17;1.07;;;;;;;6.18;50.10;102127.09;4930180;29;20067;-80
2021/04/15 08:17:55;;;;;;;0.70;0.53;;;;;;;6.42;52.07;102121.47;4923301;29;20044;-79
2021/04/15 08:20:34;;;;;;;1.43;0.90;;;;;;;6.26;50.54;102132.53;4919441;29;20055;-80
2021/04/15 08:23:19;;;;;;;0.70;0.67;;;;;;;6.30;51.78;102133.47;4926643;29;20104;-78
2021/04/15 08:26:00;;;;;;;0.60;0.60;;;;;;;6.31;51.35;102128.25;4939849;28;20048;-80
2021/04/15 08:28:46;;;;;;;1.07;0.50;;;;;;;6.26;47.29;102127.28;4896715;29;20048;-80
2021/04/15 08:31:30;;;;;;;1.00;0.50;;;;;;;6.55;49.47;102130.47;4919636;29;20640;-78
2021/04/15 08:34:09;;;;;;;0.65;0.50;;;;;;;6.75;47.94;102129.13;4930189;29;20044;-79
2021/04/15 08:36:47;;;;;;;0.73;0.53;;;;;;;6.95;46.50;102128.59;4903877;29;20042;-78
2021/04/15 08:39:31;;;;;;;1.80;0.67;;;;;;;7.12;44.41;102134.13;4929239;29;20055;-80
2021/04/15 08:42:07;;;;;;;1.65;0.60;;;;;;;7.07;46.05;102120.94;4931562;29;20056;-80
2021/04/15 08:44:42;;;;;;;0.83;0.60;;;;;;;6.83;44.22;102126.63;4931382;29;20100;-79
2021/04/15 08:47:44;;;;;;;0.40;0.40;;;;;;;6.98;43.98;102133.91;4924212;29;20071;-81
2021/04/15 08:50:21;;;;;;;0.50;0.50;;;;;;;6.67;43.24;102127.22;4936802;29;20555;-81
2021/04/15 08:53:10;;;;;;;1.13;0.80;;;;;;;6.98;44.42;102141.81;4948228;28;20067;-81
2021/04/15 08:55:42;;;;;;;1.10;0.57;;;;;;;7.11;43.08;102133.25;4932633;29;20084;-81
2021/04/15 08:58:38;;;;;;;0.90;0.50;;;;;;;6.78;43.61;102130.91;4934219;29;20039;-80
2021/04/15 09:01:15;;;;;;;1.63;0.63;;;;;;;6.70;43.93;102150.88;4944438;29;20108;-81
2021/04/15 09:03:54;;;;;;;1.93;0.70;;;;;;;6.66;43.21;102139.47;4927864;29;20048;-79
2021/04/15 09:06:25;;;;;;;0.97;0.57;;;;;;;6.76;43.53;102133.50;4932919;29;20047;-80
2021/04/15 09:09:22;;;;;;;1.63;0.70;;;;;;;6.43;42.92;102153.88;4918983;29;20520;-80
2021/04/15 09:12:09;;;;;;;1.27;0.70;;;;;;;6.10;44.46;102133.03;4940406;29;20095;-79
2021/04/15 09:14:57;;;;;;;0.50;0.50;;;;;;;6.62;46.29;102129.72;4931054;29;20054;-82
2021/04/15 09:17:39;;;;;;;0.50;0.50;;;;;;;6.87;44.04;102132.81;4934415;29;20046;-82
2021/04/15 09:20:18;;;;;;;0.77;0.43;;;;;;;6.85;44.36;102137.16;4917837;29;20051;-79
2021/04/15 09:23:07;;;;;;;1.13;0.60;;;;;;;7.17;46.62;102128.13;4918191;29;20063;-80
2021/04/15 09:25:46;;;;;;;0.80;0.70;;;;;;;7.42;45.22;102132.03;4909518;29;20047;-80
2021/04/15 09:28:28;;;;;;;0.60;0.50;;;;;;;7.26;44.79;102133.53;4907741;29;20035;-79
2021/04/15 09:31:17;;;;;;;0.60;0.50;;;;;;;7.03;44.67;102132.25;4920809;29;20039;-82
2021/04/15 09:34:24;;;;;;;1.00;0.70;;;;;;;6.83;42.95;102128.38;4931631;29;20044;-80
2021/04/15 09:36:59;;;;;;;1.97;0.80;;;;;;;6.64;43.86;102132.38;4934427;29;20051;-79
2021/04/15 09:39:47;;;;;;;2.40;1.40;;;;;;;6.77;45.36;102132.66;4909828;29;20055;-80
2021/04/15 09:42:22;;;;;;;0.40;0.40;;;;;;;6.71;43.65;102123.75;4900022;29;20046;-80
2021/04/15 09:44:53;;;;;;;2.50;0.90;;;;;;;7.06;46.04;102132.28;4920535;29;20075;-80
2021/04/15 09:47:38;;;;;;;2.67;1.00;;;;;;;7.40;44.44;102130.22;4935354;29;20179;-80
2021/04/15 09:50:19;;;;;;;6.63;1.33;;;;;;;7.31;46.28;102131.88;4947457;29;20170;-80
2021/04/15 09:53:07;;;;;;;1.37;0.73;;;;;;;7.53;45.27;102126.94;4903302;29;20115;-80
2021/04/15 09:55:42;;;;;;;0.63;0.60;;;;;;;7.54;43.38;102116.44;4930502;29;20048;-80
2021/04/15 09:58:32;;;;;;;3.23;1.87;;;;;;;7.31;42.72;102125.69;4945998;28;20457;-81
2021/04/15 10:01:02;;;;;;;2.00;1.27;;;;;;;7.39;44.18;102138.97;4933266;29;20055;-81
2021/04/15 10:04:04;;;;;;;0.90;0.73;;;;;;;7.04;44.07;102132.25;4922779;29;20403;-80
2021/04/15 10:06:34;;;;;;;3.67;1.37;;;;;;;7.08;43.97;102156.00;4934142;29;20062;-80
2021/04/15 10:09:06;;;;;;;1.50;0.80;;;;;;;6.83;44.32;102129.25;4918761;29;20044;-81
2021/04/15 10:11:35;;;;;;;0.60;0.57;;;;;;;6.99;45.74;102126.06;4927572;29;20056;-80
2021/04/15 10:14:28;;;;;;;1.33;0.67;;;;;;;6.58;43.00;102140.16;4935320;29;20520;-81
2021/04/15 10:17:18;;;;;;;2.17;1.20;;;;;;;6.59;46.15;102140.19;4912981;29;20036;-81
2021/04/15 10:19:55;;;;;;;3.40;1.47;;;;;;;6.85;46.74;102124.91;4931617;29;20046;-80
2021/04/15 10:22:46;;;;;;;1.17;0.70;;;;;;;7.02;46.89;102117.34;4923059;29;20099;-80
2021/04/15 10:25:24;;;;;;;0.77;0.60;;;;;;;6.90;44.46;102128.53;4939731;29;20051;-81
2021/04/15 10:28:08;;;;;;;1.10;0.70;;;;;;;7.09;47.67;102132.34;4923832;29;20134;-80
2021/04/15 10:31:11;;;;;;;0.80;0.60;;;;;;;6.84;45.30;102117.91;4929290;29;20301;-81
2021/04/15 10:33:47;;;;;;;1.80;1.57;;;;;;;7.02;45.35;102119.97;4946360;29;20095;-81
2021/04/15 10:36:38;;;;;;;0.73;0.70;;;;;;;7.26;46.83;102125.63;4916521;29;20054;-81
2021/04/15 10:39:36;;;;;;;2.30;0.63;;;;;;;7.00;45.98;102116.44;4930671;29;20141;-80
2021/04/15 10:42:39;;;;;;;0.90;0.60;;;;;;;7.04;46.28;102112.97;4933647;29;20517;-81
2021/04/15 10:45:24;;;;;;;0.60;0.57;;;;;;;7.03;45.96;102109.47;4934115;29;20046;-80
2021/04/15 10:48:12;;;;;;;1.90;0.90;;;;;;;7.04;45.73;102107.72;4949509;29;20055;-81
2021/04/15 10:50:56;;;;;;;1.50;0.60;;;;;;;7.09;45.53;102113.06;4948055;29;22101;-81
2021/04/15 10:54:09;;;;;;;1.08;0.60;;;;;;;7.28;45.81;102115.16;4930478;29;20095;-81
2021/04/15 10:56:42;;;;;;;0.90;0.70;;;;;;;7.44;45.61;102109.28;4941208;28;20047;-81
2021/04/15 10:59:35;;;;;;;0.70;0.70;;;;;;;7.24;44.98;102113.34;4910682;29;20469;-81
2021/04/15 11:02:20;;;;;;;1.00;0.70;;;;;;;7.24;45.25;102097.56;4916187;29;20136;-81
2021/04/15 11:04:47;;;;;;;1.48;0.65;;;;;;;7.24;45.86;102111.59;4931981;29;20051;-81
2021/04/15 11:07:33;;;;;;;1.97;0.60;;;;;;;7.37;47.13;102103.88;4932245;29;20044;-80
2021/04/15 11:10:30;;;;;;;0.93;0.80;;;;;;;7.51;46.21;102103.25;4923491;29;20103;-81
2021/04/15 11:13:08;;;;;;;0.67;0.60;;;;;;;7.53;45.68;102098.00;4929890;29;20135;-80
2021/04/15 11:15:44;;;;;;;1.07;0.70;;;;;;;7.71;45.78;102094.75;4932710;29;20056;-80
2021/04/15 11:18:14;;;;;;;1.77;0.87;;;;;;;7.51;44.85;102081.31;4930181;29;20044;-81
2021/04/15 11:20:42;;;;;;;0.83;0.70;;;;;;;7.74;45.71;102081.66;4901238;29;20049;-80
2021/04/15 11:23:16;;;;;;;0.97;0.70;;;;;;;7.87;44.93;102080.94;4948113;28;20430;-81
2021/04/15 11:25:48;;;;;;;1.73;0.80;;;;;;;8.03;44.58;102087.31;4914710;29;20040;-81
2021/04/15 11:28:18;;;;;;;1.30;1.10;;;;;;;8.07;44.30;102074.22;4918411;29;20708;-82
2021/04/15 11:30:52;;;;;;;1.33;0.93;;;;;;;8.21;43.60;102078.75;4939111;29;20083;-82
2021/04/15 11:36:32;;;;;;;0.80;0.77;;;;;;;8.09;42.96;102066.34;5038928;28;20037;-82
2021/04/15 11:39:04;;;;;;;2.97;0.80;;;;;;;8.30;45.31;102050.78;4978201;28;20487;-82
2021/04/15 11:41:46;;;;;;;1.10;0.80;;;;;;;8.52;42.80;102058.94;4999233;28;20041;-83
2021/04/15 11:44:43;;;;;;;2.17;1.00;;;;;;;8.65;43.02;102059.06;4996176;28;20494;-83
2021/04/15 11:47:25;;;;;;;1.10;0.80;;;;;;;8.16;43.60;102057.66;4981989;28;20552;-83
2021/04/15 11:49:53;;;;;;;1.10;0.80;;;;;;;8.02;43.06;102060.09;5004243;28;20116;-83
2021/04/15 11:52:26;;;;;;;1.10;0.90;;;;;;;8.22;43.28;102065.59;4984271;28;20049;-82
2021/04/15 11:54:53;;;;;;;0.87;0.80;;;;;;;8.36;44.41;102061.41;4984858;28;20474;-83
2021/04/15 11:57:19;;;;;;;1.80;0.87;;;;;;;8.46;42.95;102049.22;5000968;28;20053;-83
2021/04/15 11:59:57;;;;;;;4.20;1.00;;;;;;;7.96;42.50;102082.81;5001117;28;20052;-89
2021/04/15 12:02:50;;;;;;;1.73;0.80;;;;;;;7.71;43.43;102052.66;5015444;28;20054;-83
2021/04/15 12:05:18;;;;;;;1.10;0.80;;;;;;;7.72;43.92;102060.56;4993677;28;20038;-83
2021/04/15 12:07:55;;;;;;;1.40;0.80;;;;;;;7.55;40.57;102056.81;5010748;28;20060;-83
2021/04/15 12:10:23;;;;;;;2.07;0.90;;;;;;;7.68;40.99;102053.53;5022963;28;20041;-83
2021/04/15 12:12:53;;;;;;;0.60;0.50;;;;;;;7.65;42.59;102048.22;5017491;28;20049;-83
2021/04/15 12:15:23;;;;;;;2.73;0.77;;;;;;;7.58;40.55;102042.00;4999359;28;20674;-84
2021/04/15 12:18:27;;;;;;;1.27;0.60;;;;;;;7.49;40.25;102033.97;5010429;28;20114;-85
2021/04/15 12:21:00;;;;;;;0.80;0.70;;;;;;;7.51;41.72;102041.88;4980246;28;20055;-84
2021/04/15 12:23:34;;;;;;;1.03;0.70;;;;;;;7.59;40.55;102032.34;4989338;28;20041;-84
2021/04/15 12:26:57;;;;;;;0.85;0.60;;;;;;;7.58;40.97;102038.47;5005996;28;20127;-83
2021/04/15 12:29:43;;;;;;;1.23;0.60;;;;;;;7.55;40.85;102035.78;4989396;28;20057;-83
2021/04/15 12:32:21;;;;;;;1.10;0.60;;;;;;;7.86;40.65;102029.19;4983014;28;20096;-84
2021/04/15 12:34:57;;;;;;;1.90;0.70;;;;;;;7.93;39.83;102030.16;4981570;28;20045;-83